ADDS METAR Data INFO
IDs: Format: Raw Decoded Include TAF

Data at: 1506 UTC 19 Aug 2017

KGGG 191453Z 25008KT 10SM CLR 30/24 A3001 RMK AO2 SLP155 T03000239 51007
KGGG 191353Z 26007KT 10SM CLR 28/24 A3001 RMK AO2 SLP154 T02830244
KGGG 191253Z 23006KT 10SM CLR 26/24 A3000 RMK AO2 SLP152 T02610244

KGGG 191138Z 1912/2012 15006KT P6SM FEW250
  FM191400 21005KT P6SM FEW035 SCT250
  FM191800 25006KT P6SM SCT045 BKN250
  FM200000 17004KT P6SM FEW250


KTYR 191453Z 26011KT 10SM CLR 29/23 A3003 RMK AO2 SLP159 T02940228 51009
KTYR 191353Z 23008KT 10SM CLR 28/23 A3002 RMK AO2 SLP158 T02780233
KTYR 191253Z 22007KT 10SM CLR 27/23 A3001 RMK AO2 SLP154 T02670233

KTYR 191138Z 1912/2012 19006KT P6SM SCT250
  FM191400 22007KT P6SM FEW040 SCT250
  FM191800 24008KT P6SM SCT050 BKN250
  FM200000 17005KT P6SM FEW250